Map

Track Data

SID SEASON NUMBER BASIN SUBBASIN NAME ISO_TIME NATURE LAT LON WMO_WIND WMO_PRES WMO_AGENCY TRACK_TYPE DIST2LAND LANDFALL IFLAG USA_AGENCY USA_ATCF_ID USA_LAT USA_LON USA_RECORD USA_STATUS USA_WIND USA_PRES USA_SSHS USA_R34_NE USA_R34_SE USA_R34_SW USA_R34_NW USA_R50_NE USA_R50_SE USA_R50_SW USA_R50_NW USA_R64_NE USA_R64_SE USA_R64_SW USA_R64_NW USA_POCI USA_ROCI USA_RMW USA_EYE TOKYO_LAT TOKYO_LON TOKYO_GRADE TOKYO_WIND TOKYO_PRES TOKYO_R50_DIR TOKYO_R50_LONG TOKYO_R50_SHORT TOKYO_R30_DIR TOKYO_R30_LONG TOKYO_R30_SHORT TOKYO_LAND CMA_LAT CMA_LON CMA_CAT CMA_WIND CMA_PRES HKO_LAT HKO_LON HKO_CAT HKO_WIND HKO_PRES NEWDELHI_LAT NEWDELHI_LON NEWDELHI_GRADE NEWDELHI_WIND NEWDELHI_PRES NEWDELHI_CI NEWDELHI_DP NEWDELHI_POCI REUNION_LAT REUNION_LON REUNION_TYPE REUNION_WIND REUNION_PRES REUNION_TNUM REUNION_CI REUNION_RMW REUNION_R34_NE REUNION_R34_SE REUNION_R34_SW REUNION_R34_NW REUNION_R50_NE REUNION_R50_SE REUNION_R50_SW REUNION_R50_NW REUNION_R64_NE REUNION_R64_SE REUNION_R64_SW REUNION_R64_NW BOM_LAT BOM_LON BOM_TYPE BOM_WIND BOM_PRES BOM_TNUM BOM_CI BOM_RMW BOM_R34_NE BOM_R34_SE BOM_R34_SW BOM_R34_NW BOM_R50_NE BOM_R50_SE BOM_R50_SW BOM_R50_NW BOM_R64_NE BOM_R64_SE BOM_R64_SW BOM_R64_NW BOM_ROCI BOM_POCI BOM_EYE BOM_POS_METHOD BOM_PRES_METHOD NADI_LAT NADI_LON NADI_CAT NADI_WIND NADI_PRES WELLINGTON_LAT WELLINGTON_LON WELLINGTON_WIND WELLINGTON_PRES DS824_LAT DS824_LON DS824_STAGE DS824_WIND DS824_PRES TD9636_LAT TD9636_LON TD9636_STAGE TD9636_WIND TD9636_PRES TD9635_LAT TD9635_LON TD9635_WIND TD9635_PRES TD9635_ROCI NEUMANN_LAT NEUMANN_LON NEUMANN_CLASS NEUMANN_WIND NEUMANN_PRES MLC_LAT MLC_LON MLC_CLASS MLC_WIND MLC_PRES USA_GUST BOM_GUST BOM_GUST_PER REUNION_GUST REUNION_GUST_PER USA_SEAHGT USA_SEARAD_NE USA_SEARAD_SE USA_SEARAD_SW USA_SEARAD_NW STORM_SPEED STORM_DIR
1997201N24152 1997 56 WP MM SCOTT 1997-07-20 00:00:00 TS 24.3000 151.800 1010 tokyo main 1636 1630 _O____________ -1 24.3000 151.800 2 1010 0 0 0 5 246
1997201N24152 1997 56 WP MM SCOTT 1997-07-20 03:00:00 TS 24.1901 151.537 main 1626 1620 _P____________ -1 24.1901 151.537 2 1010 0 0 5 246
1997201N24152 1997 56 WP MM SCOTT 1997-07-20 06:00:00 TS 24.1000 151.300 1010 tokyo main 1622 1610 _O____________ -1 24.1000 151.300 2 1010 0 0 0 4 250
1997201N24152 1997 56 WP MM SCOTT 1997-07-20 09:00:00 TS 24.0424 151.100 main 1619 1604 _P____________ -1 24.0424 151.100 2 1010 0 0 6 250
1997201N24152 1997 56 WP MM SCOTT 1997-07-20 12:00:00 TS 23.9000 150.700 1010 tokyo main 1604 1589 OO____________ jtwc_wp WP111997 23.5000 149.900 20 -1 24.0000 150.900 2 1010 0 0 0 7 253
1997201N24152 1997 56 WP MM SCOTT 1997-07-20 15:00:00 TS 23.8292 150.320 main 1589 1572 PP____________ WP111997 23.5876 149.630 20 -1 23.9500 150.665 2 1009 0 0 7 263
1997201N24152 1997 56 WP MM SCOTT 1997-07-20 18:00:00 TS 23.8143 149.971 1008 tokyo main 1572 1555 OO____________ jtwc_wp WP111997 23.7000 149.400 20 -1 23.9000 150.400 2 1008 0 0 0 6 271
1997201N24152 1997 56 WP MM SCOTT 1997-07-20 21:00:00 TS 23.8425 149.664 main 1555 1535 PP____________ WP111997 23.8499 149.235 20 -1 23.8351 150.092 2 1008 0 0 5 280
1997201N24152 1997 56 WP MM SCOTT 1997-07-21 00:00:00 TS 23.9000 149.450 1008 tokyo main 1535 1515 OO____________ jtwc_wp WP111997 24.0000 149.100 20 -1 23.8000 149.800 2 1008 0 0 0 4 287
1997201N24152 1997 56 WP MM SCOTT 1997-07-21 03:00:00 TS 23.9562 149.267 main 1515 1504 PP____________ WP111997 24.1075 148.942 20 -1 23.8049 149.592 2 1007 0 0 4 295
1997201N24152 1997 56 WP MM SCOTT 1997-07-21 06:00:00 TS 24.0500 149.100 1006 tokyo main 1494 1474 OO____________ jtwc_wp WP111997 24.2000 148.800 20 -1 23.9000 149.400 2 1006 0 0 0 4 307
1997201N24152 1997 56 WP MM SCOTT 1997-07-21 09:00:00 TS 24.2025 148.914 main 1474 1450 PP____________ WP111997 24.2925 148.700 20 -1 24.1126 149.128 2 1006 0 0 5 318
1997201N24152 1997 56 WP MM SCOTT 1997-07-21 12:00:00 TS 24.4000 148.750 1006 tokyo main 1450 1420 OO____________ jtwc_wp WP111997 24.4000 148.600 20 -1 24.4000 148.900 2 1006 0 0 0 5 328
1997201N24152 1997 56 WP MM SCOTT 1997-07-21 15:00:00 TS 24.6100 148.639 main 1420 1401 PP____________ WP111997 24.5275 148.457 20 -1 24.6924 148.820 2 1006 0 0 5 338
1997201N24152 1997 56 WP MM SCOTT 1997-07-21 18:00:00 TS 24.8500 148.550 1006 tokyo main 1392 1362 OO____________ jtwc_wp WP111997 24.7000 148.300 20 -1 25.0000 148.800 2 1006 0 0 0 5 340
1997201N24152 1997 56 WP MM SCOTT 1997-07-21 21:00:00 TS 25.1175 148.439 main 1362 1334 PP____________ WP111997 24.9275 148.143 20 -1 25.3075 148.735 2 1006 0 0 6 342
1997201N24152 1997 56 WP MM SCOTT 1997-07-22 00:00:00 TS 25.4000 148.350 1006 tokyo main 1334 1300 OO____________ jtwc_wp WP111997 25.2000 148.000 20 -1 25.6000 148.700 2 1006 0 0 0 6 347
1997201N24152 1997 56 WP MM SCOTT 1997-07-22 03:00:00 TS 25.6825 148.295 main 1300 1282 PP____________ WP111997 25.5000 147.855 20 -1 25.8650 148.735 2 1006 0 0 6 356
1997201N24152 1997 56 WP MM SCOTT 1997-07-22 06:00:00 TS 25.9500 148.300 1006 tokyo main 1273 1260 OO____________ jtwc_wp WP111997 25.8000 147.800 20 -1 26.1000 148.800 2 1006 0 0 0 5 9
1997201N24152 1997 56 WP MM SCOTT 1997-07-22 09:00:00 TS 26.1825 148.377 main 1260 1248 PP____________ WP111997 26.0575 147.897 20 -1 26.3075 148.857 2 1006 0 0 5 22
1997201N24152 1997 56 WP MM SCOTT 1997-07-22 12:00:00 TS 26.4000 148.500 1006 tokyo main 1248 1236 OO____________ jtwc_wp WP111997 26.3000 148.100 20 -1 26.5000 148.900 2 1006 0 0 0 5 26
1997201N24152 1997 56 WP MM SCOTT 1997-07-22 15:00:00 TS 26.6062 148.610 main 1236 1224 PP____________ WP111997 26.5349 148.320 20 -1 26.6775 148.900 2 1006 0 0 5 26
1997201N24152 1997 56 WP MM SCOTT 1997-07-22 18:00:00 TS 26.8500 148.750 1006 tokyo main 1221 1202 OO____________ jtwc_wp WP111997 26.8000 148.600 20 -1 26.9000 148.900 2 1006 0 0 0 6 26
1997201N24152 1997 56 WP MM SCOTT 1997-07-22 21:00:00 TS 27.1700 148.920 main 1202 1189 PP____________ WP111997 27.1201 148.943 20 -1 27.2199 148.898 2 1006 0 0 8 27
1997201N24152 1997 56 WP MM SCOTT 1997-07-23 00:00:00 TS 27.5500 149.150 1006 tokyo main 1188 1177 OO____________ jtwc_wp WP111997 27.5000 149.300 20 -1 27.6000 149.000 2 1006 0 0 0 9 31
1997201N24152 1997 56 WP MM SCOTT 1997-07-23 03:00:00 TS 27.9638 149.460 main 1175 1165 PP____________ WP111997 27.9349 149.615 20 -1 27.9927 149.305 2 1006 0 0 10 34
1997201N24152 1997 56 WP MM SCOTT 1997-07-23 06:00:00 TS 28.4000 149.800 1006 tokyo main 1165 1155 OO____________ jtwc_wp WP111997 28.4000 149.900 20 -1 28.4000 149.700 2 1006 0 0 0 10 34
1997201N24152 1997 56 WP MM SCOTT 1997-07-23 09:00:00 TS 28.8287 150.115 main 1155 1139 PP____________ WP111997 28.8499 150.158 20 -1 28.8076 150.072 2 1006 0 0 10 32
1997201N24152 1997 56 WP MM SCOTT 1997-07-23 12:00:00 TS 29.2500 150.400 1006 tokyo main 1139 1132 OO____________ jtwc_wp WP111997 29.3000 150.400 20 -1 29.2000 150.400 2 1006 0 0 0 10 28
1997201N24152 1997 56 WP MM SCOTT 1997-07-23 15:00:00 TS 29.6686 150.636 main 1125 1118 PP____________ WP111997 29.7650 150.658 20 -1 29.5723 150.615 2 1006 0 0 9 26
1997201N24152 1997 56 WP MM SCOTT 1997-07-23 18:00:00 TS 30.0500 150.850 1006 tokyo main 1120 1114 OO____________ jtwc_wp WP111997 30.2000 150.900 20 -1 29.9000 150.800 2 1006 0 0 0 8 29
1997201N24152 1997 56 WP MM SCOTT 1997-07-23 21:00:00 TS 30.3801 151.101 main 1116 1112 PP____________ WP111997 30.5725 151.137 22 -1 30.1876 151.065 2 1006 0 0 7 33
1997201N24152 1997 56 WP MM SCOTT 1997-07-24 00:00:00 TS 30.6500 151.300 1006 tokyo main 1114 1110 OO____________ jtwc_wp WP111997 30.9000 151.300 25 -1 30.4000 151.300 2 1006 0 0 0 6 26
1997201N24152 1997 56 WP MM SCOTT 1997-07-24 03:00:00 TS 30.8799 151.388 main 1110 1104 PP____________ WP111997 31.2374 151.345 27 -1 30.5224 151.430 2 1006 0 0 4 12
1997201N24152 1997 56 WP MM SCOTT 1997-07-24 06:00:00 TS 31.0500 151.400 1006 tokyo main 1098 1093 OO____________ jtwc_wp WP111997 31.5000 151.300 30 -1 30.6000 151.500 2 1006 0 0 0 3 2
1997201N24152 1997 56 WP MM SCOTT 1997-07-24 09:00:00 TS 31.1650 151.390 main 1093 1093 PP____________ WP111997 31.6300 151.222 30 -1 30.7000 151.558 2 1006 0 0 2 347
1997201N24152 1997 56 WP MM SCOTT 1997-07-24 12:00:00 TS 31.2500 151.350 1006 tokyo main 1087 1073 OO____________ jtwc_wp WP111997 31.7000 151.100 30 -1 30.8000 151.600 2 1006 0 0 0 2 333
1997201N24152 1997 56 WP MM SCOTT 1997-07-24 15:00:00 TS 31.3612 151.278 main 1073 1065 PP____________ WP111997 31.8300 150.890 30 -1 30.8925 151.665 2 1006 0 0 2 335
1997201N24152 1997 56 WP MM SCOTT 1997-07-24 18:00:00 TS 31.4500 151.250 1006 tokyo main 1068 1068 OO____________ jtwc_wp WP111997 31.9000 150.800 30 -1 31.0000 151.700 2 1006 0 0 0 2 29
1997201N24152 1997 56 WP MM SCOTT 1997-07-24 21:00:00 TS 31.5126 151.371 main 1076 1076 PP____________ WP111997 31.8453 151.063 30 -1 31.1800 151.680 2 1005 0 0 2 77
1997201N24152 1997 56 WP MM SCOTT 1997-07-25 00:00:00 TS 31.5000 151.500 1004 tokyo main 1085 1085 OO____________ jtwc_wp WP111997 31.7000 151.400 30 -1 31.3000 151.600 2 1004 0 0 0 1 136
1997201N24152 1997 56 WP MM SCOTT 1997-07-25 03:00:00 TS 31.4137 151.486 main 1090 1090 PP____________ WP111997 31.5299 151.545 30 -1 31.2976 151.427 2 1004 0 0 3 185
1997201N24152 1997 56 WP MM SCOTT 1997-07-25 06:00:00 TS 31.2000 151.450 1004 tokyo main 1101 1093 OO____________ jtwc_wp WP111997 31.3000 151.600 30 -1 31.1000 151.300 2 1004 0 0 0 6 0
1997201N24152 1997 56 WP MM SCOTT 1997-07-25 09:00:00 TS 30.8412 151.462 main 1124 1124 PP____________ WP111997 31.0299 151.585 30 -1 30.6524 151.340 2 1004 0 0 8 174
1997201N24152 1997 56 WP MM SCOTT 1997-07-25 12:00:00 TS 30.4000 151.550 1004 tokyo main 1156 1156 OO____________ jtwc_wp WP111997 30.7000 151.600 30 -1 30.1000 151.500 2 1004 0 0 0 9 165
1997201N24152 1997 56 WP MM SCOTT 1997-07-25 15:00:00 TS 30.0048 151.718 main 1189 1189 PP____________ WP111997 30.3599 151.755 30 -1 29.6497 151.682 2 1004 0 0 9 155
1997201N24152 1997 56 WP MM SCOTT 1997-07-25 18:00:00 TS 29.5500 152.000 1004 tokyo main 1239 1245 OO____________ jtwc_wp WP111997 29.9000 152.000 30 -1 29.2000 152.000 2 1004 0 0 0 12 150
1997201N24152 1997 56 WP MM SCOTT 1997-07-25 21:00:00 TS 29.0025 152.387 main 1310 1310 PP____________ WP111997 29.2599 152.277 30 -1 28.7451 152.497 2 1004 0 0 14 148
1997201N24152 1997 56 WP MM SCOTT 1997-07-26 00:00:00 TS 28.3500 152.850 1004 tokyo main 1390 1390 OO____________ jtwc_wp WP111997 28.5000 152.600 30 -1 28.2000 153.100 2 1004 0 0 0 16 149
1997201N24152 1997 56 WP MM SCOTT 1997-07-26 03:00:00 TS 27.5901 153.340 main 1477 1477 PP____________ WP111997 27.7151 152.958 30 -1 27.4652 153.723 2 1004 0 0 18 151
1997201N24152 1997 56 WP MM SCOTT 1997-07-26 06:00:00 TS 26.8000 153.800 1004 tokyo main 1573 1573 OO____________ jtwc_wp WP111997 26.9000 153.300 30 -1 26.7000 154.300 2 1004 0 0 0 17 153
1997201N24152 1997 56 WP MM SCOTT 1997-07-26 09:00:00 TS 26.1149 154.185 main 1656 1656 PP____________ WP111997 26.1074 153.564 30 -1 26.1224 154.805 2 1004 0 0 15 157
1997201N24152 1997 56 WP MM SCOTT 1997-07-26 12:00:00 TS 25.4000 154.450 1004 tokyo main 1732 1732 OO____________ jtwc_wp WP111997 25.3000 153.800 30 -1 25.5000 155.100 2 1004 0 0 0 16 169
1997201N24152 1997 56 WP MM SCOTT 1997-07-26 15:00:00 TS 24.5062 154.543 main 1804 1804 PP____________ WP111997 24.3975 154.042 30 -1 24.6149 155.043 2 1003 0 0 18 176
1997201N24152 1997 56 WP MM SCOTT 1997-07-26 18:00:00 TS 23.6500 154.600 1002 tokyo main 1875 1883 OO____________ jtwc_wp WP111997 23.6000 154.300 30 -1 23.7000 154.900 2 1002 0 0 0 16 173
1997201N24152 1997 56 WP MM SCOTT 1997-07-26 21:00:00 TS 22.9737 154.759 main 1946 1946 PP____________ WP111997 23.0749 154.577 30 -1 22.8725 154.940 2 1002 0 0 12 163
1997201N24152 1997 56 WP MM SCOTT 1997-07-27 00:00:00 TS 22.4778 155.000 1002 tokyo main 2002 2002 OOO___________ jtwc_wp WP111997 22.7000 154.900 30 -1 22.3000 155.100 2 1002 0 0 0 22.3000 155.000 1 29 1002 10 147
1997201N24152 1997 56 WP MM SCOTT 1997-07-27 03:00:00 TS 22.1660 155.318 main 2047 2047 PPP___________ WP111997 22.2075 155.278 32 -1 22.1075 155.355 2 1002 0 0 22.1999 155.323 1 29 1002 7 118
1997201N24152 1997 56 WP MM SCOTT 1997-07-27 06:00:00 TS 22.1273 155.700 1002 tokyo main 2083 2082 OOO___________ jtwc_wp WP111997 22.0000 155.700 35 0 22.2000 155.700 2 1002 0 0 0 22.2000 155.700 1 29 1002 8 75
1997201N24152 1997 56 WP MM SCOTT 1997-07-27 09:00:00 TS 22.3794 156.173 main 2093 2082 PPP___________ WP111997 22.3878 156.245 35 0 22.3753 156.130 2 1001 0 0 22.3752 156.145 1 29 1001 10 49
1997201N24152 1997 56 WP MM SCOTT 1997-07-27 12:00:00 TS 22.8000 156.533 1000 tokyo main 2082 2056 OOO___________ jtwc_wp WP111997 23.0000 156.600 35 0 22.7000 156.500 2 1000 0 0 0 22.7000 156.500 1 29 1000 10 26
1997201N24152 1997 56 WP MM SCOTT 1997-07-27 15:00:00 TS 23.2679 156.645 main 2048 2009 PPP___________ WP111997 23.4597 156.493 35 0 23.1720 156.750 2 1000 0 0 23.1720 156.692 1 29 1000 9 356
1997201N24152 1997 56 WP MM SCOTT 1997-07-27 18:00:00 TS 23.6667 156.467 1000 tokyo main 2009 1965 OOO___________ jtwc_wp WP111997 23.8000 156.100 35 0 23.6000 156.700 2 1000 0 0 0 23.6000 156.600 1 29 1000 9 310
1997201N24152 1997 56 WP MM SCOTT 1997-07-27 21:00:00 TS 23.8250 155.927 main 1958 1915 PPP___________ WP111997 23.9605 155.592 35 0 23.7612 156.123 2 999 0 0 23.7535 156.065 1 29 1000 10 281
1997201N24152 1997 56 WP MM SCOTT 1997-07-28 00:00:00 TS 23.8667 155.367 35 998 tokyo main 1915 1901 OOO___________ jtwc_wp WP111997 24.0000 155.100 35 0 23.8000 155.500 3 35 998 0 9 160 160 0 23.8000 155.500 1 29 1000 7 278
1997201N24152 1997 56 WP MM SCOTT 1997-07-28 03:00:00 TS 23.9213 155.192 main 1901 1901 PPP___________ WP111997 24.0222 154.862 35 0 23.8421 155.352 3 35 997 0 9 170 170 23.8997 155.360 1 31 999 2 295
1997201N24152 1997 56 WP MM SCOTT 1997-07-28 06:00:00 TS 23.9385 155.200 35 996 tokyo main 1901 1893 OOOO__________ jtwc_wp WP111997 24.0000 154.700 35 0 23.9000 155.400 3 35 996 0 9 180 180 0 24.0000 155.400 2 34 998 23.6000 155.600 TD 30 998 1 353
1997201N24152 1997 56 WP MM SCOTT 1997-07-28 09:00:00 TS 23.9768 155.162 main 1893 1885 PPPP__________ WP111997 23.9201 154.397 35 0 24.0350 155.435 3 35 997 0 9 180 180 24.0925 155.435 2 34 998 23.7425 155.602 TD 32 997 1 0
1997201N24152 1997 56 WP MM SCOTT 1997-07-28 12:00:00 TS 24.0600 155.173 35 998 tokyo main 1885 1877 OOOO__________ jtwc_wp WP111997 23.9000 154.200 35 0 24.2000 155.500 3 35 998 0 9 180 180 0 24.2000 155.500 2 34 998 23.9000 155.600 TS 35 996 2 18
1997201N24152 1997 56 WP MM SCOTT 1997-07-28 15:00:00 TS 24.2062 155.233 main 1877 1868 PPPP__________ WP111997 24.0472 154.238 37 0 24.3500 155.550 3 37 996 0 9 190 190 24.3425 155.550 2 36 996 24.0850 155.593 TS 35 996 4 22
1997201N24152 1997 56 WP MM SCOTT 1997-07-28 18:00:00 TS 24.4000 155.325 40 994 tokyo main 1868 1866 OOOO__________ jtwc_wp WP111997 24.3000 154.500 40 0 24.5000 155.600 3 40 994 0 9 200 200 0 24.5000 155.600 2 38 995 24.3000 155.600 TS 35 996 4 30
1997201N24152 1997 56 WP MM SCOTT 1997-07-28 21:00:00 TS 24.5901 155.480 main 1866 1858 PPPP__________ WP111997 24.5931 154.999 42 0 24.6200 155.643 3 40 994 0 9 200 200 24.6200 155.643 2 38 995 24.5275 155.635 TS 37 994 5 35
1997201N24152 1997 56 WP MM SCOTT 1997-07-29 00:00:00 TS 24.8250 155.650 40 994 tokyo main 1865 1842 OOOO__________ jtwc_wp WP111997 24.9000 155.500 45 0 24.8000 155.700 3 40 994 0 9 200 200 0 24.8000 155.700 2 38 995 24.8000 155.700 TS 40 992 6 25
1997201N24152 1997 56 WP MM SCOTT 1997-07-29 03:00:00 TS 25.1443 155.766 main 1849 1826 PPPP__________ WP111997 25.1797 155.710 50 0 25.1275 155.785 3 40 993 0 9 220 220 25.1275 155.785 2 41 992 25.1425 155.785 TS 42 991 7 18
1997201N24152 1997 56 WP MM SCOTT 1997-07-29 06:00:00 TS 25.4750 155.875 40 992 tokyo main 1826 1818 OOOO__________ jtwc_wp WP111997 25.4000 155.800 55 0 25.5000 155.900 3 40 992 0 9 240 240 0 25.5000 155.900 2 44 990 25.5000 155.900 TS 45 990 6 19
1997201N24152 1997 56 WP MM SCOTT 1997-07-29 09:00:00 TS 25.7287 155.994 main 1819 1804 PPPP__________ WP111997 25.4925 155.908 55 0 25.8074 156.020 3 40 992 0 9 240 240 25.8074 156.020 2 44 990 25.8074 156.028 TS 45 990 6 26
1997201N24152 1997 56 WP MM SCOTT 1997-07-29 12:00:00 TS 25.9750 156.150 40 992 tokyo main 1812 1804 OOOO__________ jtwc_wp WP111997 25.6000 156.000 55 0 26.1000 156.200 3 40 992 0 9 240 240 0 26.1000 156.200 2 44 990 26.1000 156.200 TS 45 990 6 32
1997201N24152 1997 56 WP MM SCOTT 1997-07-29 15:00:00 TS 26.2675 156.369 main 1806 1798 PPPP__________ WP111997 25.8775 156.100 55 0 26.4001 156.477 3 40 992 0 9 240 240 26.4001 156.477 2 44 990 26.3924 156.420 TS 45 990 7 35
1997201N24152 1997 56 WP MM SCOTT 1997-07-29 18:00:00 TS 26.5750 156.625 40 992 tokyo main 1800 1800 OOOO__________ jtwc_wp WP111997 26.2000 156.200 55 0 26.7000 156.800 3 40 992 0 9 240 240 0 26.7000 156.800 2 44 990 26.7000 156.700 TS 45 990 7 37
1997201N24152 1997 56 WP MM SCOTT 1997-07-29 21:00:00 TS 26.8674 156.867 main 1803 1797 PPPP__________ WP111997 26.4424 156.278 50 0 26.9923 157.078 3 40 992 0 9 240 240 26.9923 157.085 2 44 990 27.0425 157.028 TS 45 990 8 38
1997201N24152 1997 56 WP MM SCOTT 1997-07-30 00:00:00 TS 27.1750 157.150 40 992 tokyo main 1807 1801 OOOO__________ jtwc_wp WP111997 26.7000 156.400 45 0 27.3000 157.400 3 40 992 0 9 240 240 0 27.3000 157.400 2 44 990 27.4000 157.400 TS 45 990 9 41
1997201N24152 1997 56 WP MM SCOTT 1997-07-30 03:00:00 TS 27.5081 157.499 main 1812 1812 PPPP__________ WP111997 27.0124 156.605 45 0 27.6350 157.828 3 40 992 0 9 240 240 27.6349 157.770 2 44 990 27.7499 157.793 TS 45 990 10 44
1997201N24152 1997 56 WP MM SCOTT 1997-07-30 06:00:00 TS 27.8750 157.900 40 992 tokyo main 1820 1820 OOOO__________ jtwc_wp WP111997 27.4000 156.900 45 0 28.0000 158.300 3 40 992 0 9 240 240 0 28.0000 158.200 2 44 990 28.1000 158.200 TS 45 990 11 44
1997201N24152 1997 56 WP MM SCOTT 1997-07-30 09:00:00 TS 28.2799 158.330 main 1830 1830 PPPP__________ WP111997 27.8772 157.240 45 0 28.3851 158.780 3 40 992 0 9 240 240 28.4001 158.700 2 44 990 28.4574 158.600 TS 45 990 11 43
1997201N24152 1997 56 WP MM SCOTT 1997-07-30 12:00:00 TS 28.7000 158.775 40 992 tokyo main 1849 1844 OOOO__________ jtwc_wp WP111997 28.4000 157.700 45 0 28.8000 159.200 3 40 992 0 9 240 240 0 28.8000 159.200 2 44 990 28.8000 159.000 TS 45 990 11 43
1997201N24152 1997 56 WP MM SCOTT 1997-07-30 15:00:00 TS 29.1149 159.204 main 1862 1862 PPPP__________ WP111997 28.9152 158.312 42 0 29.2647 159.480 3 40 993 0 9 240 240 29.1723 159.623 2 41 992 29.1074 159.400 TS 42 992 11 43
1997201N24152 1997 56 WP MM SCOTT 1997-07-30 18:00:00 TS 29.5000 159.625 40 994 tokyo main 1876 1876 OOOO__________ jtwc_wp WP111997 29.4000 159.000 40 0 29.7000 159.700 3 40 994 0 9 240 240 0 29.5000 160.000 2 38 995 29.4000 159.800 TS 40 994 10 44
1997201N24152 1997 56 WP MM SCOTT 1997-07-30 21:00:00 TS 29.8365 160.017 main 1896 1891 PPPP__________ WP111997 29.8296 159.643 40 0 30.0445 159.898 3 40 994 0 9 240 240 29.7647 160.343 2 36 996 29.7072 160.185 TS 40 994 10 49
1997201N24152 1997 56 WP MM SCOTT 1997-07-31 00:00:00 TS 30.1250 160.450 40 994 tokyo main 1926 1921 OOOO__________ jtwc_wp WP111997 30.2000 160.300 40 0 30.3000 160.200 3 40 994 0 9 240 240 0 30.0000 160.700 2 34 998 30.0000 160.600 TS 40 994 10 56
1997201N24152 1997 56 WP MM SCOTT 1997-07-31 03:00:00 TS 30.3884 160.966 main 1955 1949 PPPP__________ WP111997 30.5372 160.993 37 0 30.4798 160.718 3 40 994 0 9 240 240 30.2645 161.098 2 31 999 30.2721 161.055 TS 40 994 11 64
1997201N24152 1997 56 WP MM SCOTT 1997-07-31 06:00:00 TS 30.6000 161.575 40 994 tokyo main 1961 1961 OOOO__________ jtwc_wp WP111997 30.8000 161.700 35 0 30.6000 161.400 3 40 994 0 9 240 240 0 30.5000 161.600 1 29 1000 30.5000 161.600 TS 40 994 12 72
1997201N24152 1997 56 WP MM SCOTT 1997-07-31 09:00:00 TS 30.7599 162.274 main 1974 1974 PPPP__________ WP111997 30.9871 162.400 35 0 30.7076 162.178 3 37 995 0 9 240 240 30.6725 162.255 1 29 1000 30.6724 162.263 TS 40 994 13 78
1997201N24152 1997 56 WP MM SCOTT 1997-07-31 12:00:00 TS 30.8750 163.025 35 996 tokyo main 1999 1999 OOOO__________ jtwc_wp WP111997 31.1000 163.100 35 0 30.8000 163.000 3 35 996 0 9 240 240 0 30.8000 163.000 1 29 1000 30.8000 163.000 TS 40 994 13 81
1997201N24152 1997 56 WP MM SCOTT 1997-07-31 15:00:00 TS 30.9636 163.741 main 2025 2025 PPPP__________ WP111997 31.1644 163.785 35 0 30.8915 163.735 3 35 996 0 9 240 240 30.8993 163.721 1 29 1000 30.8993 163.721 TS 40 994 13 82
1997201N24152 1997 56 WP MM SCOTT 1997-07-31 18:00:00 TS 31.0500 164.500 35 996 tokyo main 2057 2057 OOOO__________ jtwc_wp WP111997 31.2000 164.500 35 0 31.0000 164.500 3 35 996 0 9 240 240 0 31.0000 164.500 1 29 1000 31.0000 164.500 TS 40 994 14 82
1997201N24152 1997 56 WP MM SCOTT 1997-07-31 21:00:00 TS 31.1595 165.342 main 2091 2091 PPPP__________ WP111997 31.2342 165.256 37 0 31.1347 165.370 3 35 996 0 9 240 240 31.1345 165.363 1 29 1000 31.1348 165.378 TS 40 994 15 81
1997201N24152 1997 56 WP MM SCOTT 1997-08-01 00:00:00 TS 31.3000 166.250 35 996 tokyo main 2135 2135 OOOO__________ jtwc_wp WP111997 31.3000 166.100 40 0 31.3000 166.300 3 35 996 0 9 240 240 0 31.3000 166.300 1 29 1000 31.3000 166.300 TS 40 994 16 80
1997201N24152 1997 56 WP MM SCOTT 1997-08-01 03:00:00 TS 31.4463 167.221 main 2177 2174 PPPP__________ WP111997 31.4052 167.086 40 0 31.4549 167.266 3 35 996 0 9 240 240 31.4629 167.323 1 29 1000 31.4620 167.208 TS 40 994 17 77
1997201N24152 1997 56 WP MM SCOTT 1997-08-01 06:00:00 TS 31.6750 168.175 35 996 tokyo main 2208 2208 OOOO__________ jtwc_wp WP111997 31.6000 168.100 40 0 31.7000 168.200 3 35 996 0 9 240 240 0 31.7000 168.300 1 29 1000 31.7000 168.100 TS 40 994 17 70
1997201N24152 1997 56 WP MM SCOTT 1997-08-01 09:00:00 TS 32.0185 169.062 main 2237 2232 PPPP__________ WP111997 31.8901 169.075 40 0 32.0972 169.060 3 35 996 0 9 240 240 32.0393 169.118 1 29 1000 32.0475 168.995 TS 40 994 16 60
1997201N24152 1997 56 WP MM SCOTT 1997-08-01 12:00:00 TS 32.4733 169.827 35 996 tokyo main 2238 2235 OOOO__________ jtwc_wp WP111997 32.3000 169.900 40 0 32.6000 169.800 3 35 996 0 9 240 240 0 32.5000 169.800 1 29 1000 32.5000 169.800 TS 40 994 15 49
1997201N24152 1997 56 WP MM SCOTT 1997-08-01 15:00:00 TS 33.0000 170.415 main 2235 2213 PPPP__________ WP111997 32.7737 170.447 37 0 33.1343 170.396 3 35 996 0 9 240 240 33.0769 170.388 1 29 1000 33.0301 170.447 TS 40 994 14 39
1997201N24152 1997 56 WP MM SCOTT 1997-08-01 18:00:00 TS 33.6000 170.908 35 996 tokyo main 2213 2178 OOOO__________ jtwc_wp WP111997 33.4000 170.900 35 0 33.7000 170.900 3 35 996 0 9 240 240 0 33.7000 170.900 1 29 1000 33.6000 171.000 TS 40 994 15 35
1997201N24152 1997 56 WP MM SCOTT 1997-08-01 21:00:00 TS 34.2048 171.432 main 2178 2135 PPP___________ WP111997 34.2129 171.521 35 0 34.1969 171.387 3 35 996 0 9 240 240 34.2044 171.388 1 29 1000 TS 16 34
1997201N24152 1997 56 WP MM SCOTT 1997-08-02 00:00:00 TS 34.9000 171.967 35 996 tokyo main 2140 2085 OOO___________ jtwc_wp WP111997 35.1000 172.100 35 0 34.8000 171.900 3 35 996 0 9 240 240 0 34.8000 171.900 1 29 1000 17 29
1997201N24152 1997 56 WP MM SCOTT 1997-08-02 03:00:00 TS 35.7134 172.469 main 2090 2035 PPP___________ WP111997 35.9209 172.409 35 0 35.6096 172.500 3 35 996 0 9 240 240 35.6096 172.500 1 29 1000 20 27
1997201N24152 1997 56 WP MM SCOTT 1997-08-02 06:00:00 TS 36.6364 173.055 35 996 tokyo main 2040 1993 OOO___________ jtwc_wp WP111997 36.7000 172.800 35 0 36.6000 173.200 3 35 996 0 9 240 240 0 36.6000 173.200 1 29 1000 21 30
1997201N24152 1997 56 WP MM SCOTT 1997-08-02 09:00:00 TS 37.5328 173.775 main 1998 1947 PPP___________ WP111997 37.3457 173.527 35 0 37.6268 173.905 3 996 0 9 37.7189 174.011 1 29 1000 24 35
1997201N24152 1997 56 WP MM SCOTT 1997-08-02 12:00:00 TS 38.6000 174.788 996 tokyo main 1948 1826 OOO___________ jtwc_wp WP111997 38.1000 174.600 35 0 38.9000 174.900 2 996 0 0 0 38.9000 174.900 1 29 1000 32 40
1997201N24152 1997 56 WP MM SCOTT 1997-08-02 15:00:00 TS 39.9806 176.406 main 1812 1566 PP____________ WP111997 39.1610 176.031 35 0 40.3905 176.593 2 994 0 0 1 42 38
1997201N24152 1997 56 WP MM SCOTT 1997-08-02 18:00:00 TS 41.9200 178.180 992 tokyo main 1552 1249 OO____________ jtwc_wp WP111997 40.4000 177.700 35 0 42.3000 178.300 2 992 0 0 0 53 24
1997201N24152 1997 56 WP MM SCOTT 1997-08-02 21:00:00 TS 44.8141 179.335 main 1240 994 _P____________ WP111997 -1 44.8141 179.335 2 990 0 0 57 13
1997201N24152 1997 56 EP CP SCOTT 1997-08-03 00:00:00 ET 47.5000 180.000 988 tokyo main 986 813 _O____________ -1 47.5000 180.000 6 988 0 0 0 51 9
1997201N24152 1997 56 EP CP SCOTT 1997-08-03 03:00:00 ET 49.8654 180.521 main 802 690 _P____________ -1 49.8654 -179.479 6 988 0 0 45 8
1997201N24152 1997 56 EP CP SCOTT 1997-08-03 06:00:00 ET 52.0000 181.000 main 687 _O____________ -1 52.0000 181.000 6 988 0 0 0 43 8

Digital Typhoon Data and Search

About IBTrACS Database

This database is a web-friendly format of International Best Track Archive for Climate Stewardship (IBTrACS), a global best track data archive curated by NOAA dating back to 1842.

Updated: 2021-10-25